Time;durP1;ratioP1;P1;durP2;ratioP2;P2;SDS_P1;SDS_P2;PMS_P1;PMS_P2;Temp;Humidity;BMP_temperature;BMP_pressure;BME280_temperature;BME280_humidity;BME280_pressure;Samples;Min_cycle;Max_cycle;Signal;HPM_P1;HPM_P2
2022/10/03 00:01:41;;;;;;;;;4.00;3.75;;;;;16.09;87.62;99883.78;5072774;28;47312;-90
2022/10/03 00:04:31;;;;;;;;;3.40;3.00;;;;;16.09;87.59;99881.13;5042744;28;45455;-90
2022/10/03 00:07:21;;;;;;;;;4.00;3.20;;;;;16.08;87.57;99884.75;5061020;27;45452;-90
2022/10/03 00:10:04;;;;;;;;;2.75;2.00;;;;;16.11;87.77;99878.38;5056663;28;45349;-90
2022/10/03 00:13:02;;;;;;;;;3.00;3.00;;;;;16.13;87.33;99880.03;5057266;28;48210;-90
2022/10/03 00:15:37;;;;;;;;;4.00;2.20;;;;;16.11;87.28;99867.75;5071535;28;45593;-90
2022/10/03 00:18:21;;;;;;;;;2.00;2.00;;;;;16.07;87.60;99876.84;5051295;28;45412;-90
2022/10/03 00:21:00;;;;;;;;;2.00;2.00;;;;;16.07;86.70;99874.19;5072191;28;45681;-90
2022/10/03 00:23:50;;;;;;;;;4.00;2.25;;;;;16.10;87.20;99884.66;5077783;27;48183;-89
2022/10/03 00:26:29;;;;;;;;;3.20;2.00;;;;;16.13;87.68;99872.06;5058394;28;45452;-89
2022/10/03 00:29:04;;;;;;;;;3.00;3.00;;;;;16.15;87.15;99866.66;5060836;28;45562;-90
2022/10/03 00:31:45;;;;;;;;;3.75;3.75;;;;;16.17;87.29;99878.09;5073006;28;45597;-90
2022/10/03 00:34:49;;;;;;;;;3.25;3.00;;;;;16.16;87.11;99871.91;5051472;28;45627;-89
2022/10/03 00:37:43;;;;;;;;;2.00;2.00;;;;;16.16;87.04;99884.34;5064729;28;45407;-90
2022/10/03 00:40:23;;;;;;;;;3.75;3.75;;;;;16.16;87.29;99877.22;5052798;28;45384;-90
2022/10/03 00:43:18;;;;;;;;;3.00;3.00;;;;;16.15;86.69;99877.31;5073175;28;45536;-90
2022/10/03 00:45:54;;;;;;;;;2.00;2.00;;;;;16.13;86.84;99885.34;5071701;27;45610;-91
2022/10/03 00:48:56;;;;;;;;;3.00;3.00;;;;;16.15;86.77;99885.28;5067678;28;45407;-90
2022/10/03 00:51:41;;;;;;;;;2.00;2.00;;;;;16.15;86.68;99880.81;5088417;27;45386;-89
2022/10/03 00:54:47;;;;;;;;;4.25;3.00;;;;;16.14;86.77;99889.75;5054982;28;45189;-90
2022/10/03 00:57:22;;;;;;;;;1.60;1.60;;;;;16.15;86.45;99878.16;5029409;28;47575;-90
2022/10/03 01:00:26;;;;;;;;;3.00;3.00;;;;;16.16;86.01;99879.03;5071215;28;45633;-90
2022/10/03 01:02:51;;;;;;;;;2.00;2.00;;;;;16.16;86.46;99877.22;5052123;27;45494;-90
2022/10/03 01:05:26;;;;;;;;;3.00;2.00;;;;;16.17;84.66;99873.63;5058110;28;45482;-89
2022/10/03 01:08:32;;;;;;;;;3.00;3.00;;;;;16.22;85.43;99878.72;5057192;28;45685;-90
2022/10/03 01:11:25;;;;;;;;;2.00;2.00;;;;;16.22;85.64;99876.06;5027802;28;45421;-90
2022/10/03 01:13:50;;;;;;;;;3.50;3.00;;;;;16.20;85.55;99877.94;5056418;28;45413;-90
2022/10/03 01:16:36;;;;;;;;;3.75;3.50;;;;;16.17;85.71;99872.78;5071667;28;45431;-90
2022/10/03 01:19:31;;;;;;;;;5.00;2.00;;;;;16.15;86.03;99866.66;5067966;28;47490;-90
2022/10/03 01:22:15;;;;;;;;;2.80;2.80;;;;;16.12;85.65;99865.00;5046722;28;45369;-90
2022/10/03 01:24:49;;;;;;;;;2.00;2.00;;;;;16.10;85.84;99861.56;5072418;28;45388;-90
2022/10/03 01:27:27;;;;;;;;;2.00;2.00;;;;;16.08;85.78;99865.28;5072139;28;46040;-89
2022/10/03 01:30:23;;;;;;;;;3.50;2.00;;;;;16.08;85.43;99875.91;5054796;28;45549;-90
2022/10/03 01:33:08;;;;;;;;;1.80;1.80;;;;;16.05;85.44;99863.63;5053071;28;45584;-91
2022/10/03 01:35:48;;;;;;;;;2.00;2.00;;;;;16.04;85.62;99870.72;5068107;27;45471;-90
2022/10/03 01:38:28;;;;;;;;;2.25;2.00;;;;;16.03;85.49;99871.69;5051939;28;45368;-90
2022/10/03 01:41:08;;;;;;;;;1.75;1.75;;;;;16.02;85.78;99874.41;5070988;28;45865;-90
2022/10/03 01:44:11;;;;;;;;;2.00;2.00;;;;;16.00;85.40;99868.31;5043500;28;45332;-90
2022/10/03 01:46:48;;;;;;;;;4.40;3.00;;;;;16.00;85.40;99871.81;5052670;28;45352;-90
2022/10/03 01:49:37;;;;;;;;;2.00;2.00;;;;;15.99;85.38;99871.91;5049423;28;45423;-90
2022/10/03 01:52:07;;;;;;;;;2.00;2.00;;;;;15.97;85.36;99869.31;5051808;28;45528;-90
2022/10/03 01:54:42;;;;;;;;;2.60;2.60;;;;;15.95;85.67;99865.88;5071382;28;45508;-89
2022/10/03 01:57:24;;;;;;;;;2.20;2.20;;;;;15.92;85.49;99865.19;5052356;28;45469;-90
2022/10/03 02:00:00;;;;;;;;;3.25;3.25;;;;;15.88;85.51;99858.28;5047551;28;45455;-90
2022/10/03 02:02:38;;;;;;;;;3.25;1.00;;;;;15.83;85.74;99863.81;5042943;28;47020;-89
2022/10/03 02:05:21;;;;;;;;;4.00;2.60;;;;;15.77;85.85;99856.13;5080978;27;45294;-89
2022/10/03 02:07:53;;;;;;;;;1.75;1.75;;;;;15.72;85.76;99858.19;5055390;28;45430;-90
2022/10/03 02:10:37;;;;;;;;;0.20;0.20;;;;;15.68;86.21;99865.44;5056338;28;45446;-90
2022/10/03 02:13:17;;;;;;;;;3.40;2.80;;;;;15.66;86.59;99855.81;5064026;28;47160;-89
2022/10/03 02:15:48;;;;;;;;;2.80;2.80;;;;;15.64;86.89;99855.88;5057365;28;46044;-90
2022/10/03 02:18:46;;;;;;;;;3.00;2.75;;;;;15.65;86.69;99851.44;5049737;28;45514;-90
2022/10/03 02:21:17;;;;;;;;;2.75;2.00;;;;;15.62;86.38;99849.78;5029008;28;45443;-90
2022/10/03 02:23:45;;;;;;;;;2.75;2.75;;;;;15.62;86.97;99849.78;5074213;28;47183;-90
2022/10/03 02:27:02;;;;;;;;;2.40;2.40;;;;;15.62;86.81;99851.59;5058199;28;45467;-89
2022/10/03 02:29:46;;;;;;;;;1.80;1.80;;;;;15.62;86.62;99854.25;5067290;27;45544;-90
2022/10/03 02:32:24;;;;;;;;;1.75;1.75;;;;;15.61;86.60;99857.84;5055622;28;45361;-90
2022/10/03 02:35:14;;;;;;;;;2.00;2.00;;;;;15.54;86.84;99853.75;5053884;28;45497;-90
2022/10/03 02:38:04;;;;;;;;;2.20;1.80;;;;;15.48;87.12;99852.22;5071889;28;45453;-90
2022/10/03 02:40:38;;;;;;;;;2.80;2.80;;;;;15.44;87.29;99855.97;5074645;28;45372;-90
2022/10/03 02:43:30;;;;;;;;;1.50;1.50;;;;;15.43;87.14;99850.72;5068324;27;45466;-90
2022/10/03 02:46:33;;;;;;;;;2.75;2.50;;;;;15.41;87.63;99852.63;5045921;28;45463;-90
2022/10/03 02:49:25;;;;;;;;;2.40;2.40;;;;;15.40;87.44;99851.75;5055150;28;45481;-90
2022/10/03 02:52:32;;;;;;;;;1.00;1.00;;;;;15.40;87.16;99842.91;5064916;28;45358;-89
2022/10/03 02:55:18;;;;;;;;;2.00;2.00;;;;;15.42;87.37;99854.31;5051903;28;45715;-90
2022/10/03 02:58:18;;;;;;;;;2.75;2.50;;;;;15.44;87.11;99845.31;5091330;27;47859;-89
2022/10/03 03:01:09;;;;;;;;;1.60;1.60;;;;;15.43;87.16;99848.91;5053261;28;45372;-90
2022/10/03 03:04:12;;;;;;;;;1.50;1.50;;;;;15.43;87.00;99858.69;5056320;28;45553;-88
2022/10/03 03:06:51;;;;;;;;;2.50;2.50;;;;;15.38;87.17;99848.31;5057604;28;45353;-90
2022/10/03 03:09:35;;;;;;;;;3.25;2.50;;;;;15.36;87.19;99851.03;5057097;28;45544;-90
2022/10/03 03:12:10;;;;;;;;;2.00;2.00;;;;;15.36;87.70;99844.84;5079814;27;45451;-89
2022/10/03 03:14:58;;;;;;;;;1.50;1.50;;;;;15.35;87.11;99848.44;5060376;28;45491;-90
2022/10/03 03:17:33;;;;;;;;;3.00;2.00;;;;;15.34;87.55;99846.72;5044383;28;45390;-90
2022/10/03 03:20:32;;;;;;;;;2.80;1.60;;;;;15.34;87.41;99838.75;5051961;28;46088;-90
2022/10/03 03:23:35;;;;;;;;;2.20;1.00;;;;;15.36;87.35;99836.88;5057952;28;45441;-90
2022/10/03 03:26:30;;;;;;;;;2.20;1.60;;;;;15.38;87.02;99837.69;5051723;28;45463;-90
2022/10/03 03:29:19;;;;;;;;;2.50;1.50;;;;;15.42;87.19;99841.03;5054654;28;45594;-89
2022/10/03 03:32:02;;;;;;;;;2.00;1.25;;;;;15.42;86.85;99843.69;5061323;28;48279;-90
2022/10/03 03:35:05;;;;;;;;;1.80;1.80;;;;;15.44;86.88;99839.16;5055776;28;45359;-90
2022/10/03 03:38:11;;;;;;;;;1.80;1.80;;;;;15.44;87.17;99831.19;5054587;28;45503;-89
2022/10/03 03:40:42;;;;;;;;;4.75;2.75;;;;;15.45;86.93;99839.09;5072843;28;45564;-90
2022/10/03 03:43:36;;;;;;;;;2.50;2.00;;;;;15.44;86.57;99834.69;5056355;28;45455;-89
2022/10/03 03:46:25;;;;;;;;;2.60;2.00;;;;;15.45;86.74;99830.25;5056093;28;45414;-89
2022/10/03 03:48:53;;;;;;;;;1.75;1.75;;;;;15.45;86.77;99832.91;5045905;28;45439;-89
2022/10/03 03:51:33;;;;;;;;;3.75;2.75;;;;;15.44;87.01;99840.00;5057026;28;45605;-90
2022/10/03 03:54:30;;;;;;;;;1.20;1.20;;;;;15.45;87.07;99832.91;5071001;28;45705;-89
2022/10/03 03:57:11;;;;;;;;;1.80;1.80;;;;;15.44;87.09;99837.34;5056698;28;45424;-90
2022/10/03 03:59:52;;;;;;;;;3.25;2.75;;;;;15.44;86.86;99837.34;5063734;28;45510;-88
2022/10/03 04:02:37;;;;;;;;;2.75;2.75;;;;;15.40;86.79;99833.16;5056003;28;45453;-89
2022/10/03 04:05:31;;;;;;;;;2.75;2.75;;;;;15.38;87.13;99827.06;5071255;28;47183;-89
2022/10/03 04:08:20;;;;;;;;;2.20;2.20;;;;;15.35;86.93;99827.19;5046395;28;45931;-90
2022/10/03 04:11:00;;;;;;;;;3.00;3.00;;;;;15.37;87.28;99830.63;5054865;28;45420;-90
2022/10/03 04:13:29;;;;;;;;;4.25;2.00;;;;;15.39;87.42;99833.22;5056705;28;45376;-89
2022/10/03 04:18:56;;;;;;;;;3.25;2.00;;;;;15.38;87.29;99829.72;5056987;28;46435;-88
2022/10/03 04:19:09;;;;;;;;;2.40;2.00;;;;;15.40;87.04;99827.84;5052200;28;45203;-90
2022/10/03 04:21:51;;;;;;;;;2.00;2.00;;;;;15.43;87.20;99818.81;5057204;28;45552;-89
2022/10/03 04:24:42;;;;;;;;;2.25;2.25;;;;;15.44;87.43;99825.88;5037111;28;45288;-89
2022/10/03 04:27:52;;;;;;;;;2.00;2.00;;;;;15.44;87.39;99810.78;5045598;28;47292;-89
2022/10/03 04:30:28;;;;;;;;;3.40;2.60;;;;;15.46;86.88;99808.91;5048742;28;45301;-90
2022/10/03 04:33:19;;;;;;;;;1.25;1.25;;;;;15.47;86.98;99807.97;5072104;27;45428;-89
2022/10/03 04:36:05;;;;;;;;;3.50;2.50;;;;;15.51;87.12;99809.56;5041419;28;45477;-89
2022/10/03 04:38:56;;;;;;;;;3.00;2.75;;;;;15.52;86.57;99800.66;5055676;28;45401;-89
2022/10/03 04:41:31;;;;;;;;;3.00;3.00;;;;;15.55;86.93;99803.19;5062105;28;45454;-90
2022/10/03 04:44:14;;;;;;;;;1.60;1.60;;;;;15.57;86.78;99801.34;5071716;28;45448;-89
2022/10/03 04:46:55;;;;;;;;;3.50;3.50;;;;;15.59;86.55;99798.56;5048419;28;45525;-89
2022/10/03 04:49:20;;;;;;;;;1.80;1.80;;;;;15.61;86.47;99791.38;5058497;28;48166;-88
2022/10/03 04:52:24;;;;;;;;;4.00;3.75;;;;;15.62;86.23;99788.66;5067681;28;45383;-89
2022/10/03 04:54:59;;;;;;;;;4.75;4.00;;;;;15.63;86.14;99790.38;5050647;28;45418;-90
2022/10/03 04:57:24;;;;;;;;;7.00;6.00;;;;;15.65;86.17;99792.97;5052128;28;45420;-88
2022/10/03 05:00:15;;;;;;;;;4.00;3.75;;;;;15.65;86.07;99783.19;5053687;28;45567;-89
2022/10/03 05:02:57;;;;;;;;;2.00;2.00;;;;;15.66;86.07;99782.25;5052469;28;45432;-88
2022/10/03 05:05:31;;;;;;;;;3.75;3.75;;;;;15.65;85.84;99784.97;5070934;28;45490;-89
2022/10/03 05:08:38;;;;;;;;;2.25;2.25;;;;;15.62;86.13;99791.31;5054166;28;45347;-89
2022/10/03 05:11:28;;;;;;;;;0.75;0.75;;;;;15.59;86.17;99794.13;5055567;28;45518;-89
2022/10/03 05:14:07;;;;;;;;;2.80;2.80;;;;;15.57;86.31;99797.81;5063833;28;45272;-90
2022/10/03 05:16:52;;;;;;;;;5.25;5.25;;;;;15.54;86.20;99792.59;5053038;28;45444;-89
2022/10/03 05:19:46;;;;;;;;;6.50;4.50;;;;;15.52;86.20;99805.97;5047870;28;45397;-89
2022/10/03 05:22:11;;;;;;;;;3.00;3.00;;;;;15.50;86.24;99802.53;5066492;28;47082;-90
2022/10/03 05:24:59;;;;;;;;;4.00;4.00;;;;;15.49;86.02;99803.47;5051799;28;45364;-88
2022/10/03 05:27:33;;;;;;;;;5.00;4.00;;;;;15.46;86.12;99797.44;5055035;28;45543;-89
2022/10/03 05:30:06;;;;;;;;;3.75;3.50;;;;;15.44;86.05;99802.81;5056573;28;45415;-90
2022/10/03 05:32:50;;;;;;;;;3.50;3.50;;;;;15.44;86.80;99807.25;5048490;28;48074;-61
2022/10/03 05:35:30;;;;;;;;;4.20;3.60;;;;;15.45;86.57;99803.69;5047960;28;45348;-60
2022/10/03 05:38:02;;;;;;;;;4.50;3.75;;;;;15.47;86.40;99810.63;5064360;28;45554;-61
2022/10/03 05:40:32;;;;;;;;;4.75;3.50;;;;;15.48;86.04;99811.50;5048302;28;45554;-61
2022/10/03 05:43:12;;;;;;;;;6.50;4.50;;;;;15.49;86.16;99815.88;5045932;28;45727;-61
2022/10/03 05:45:47;;;;;;;;;7.00;4.80;;;;;15.49;85.98;99815.88;5049014;28;45371;-59
2022/10/03 05:48:43;;;;;;;;;3.00;3.00;;;;;15.50;85.76;99812.28;5048533;28;45397;-60
2022/10/03 05:51:35;;;;;;;;;2.75;2.75;;;;;15.50;86.07;99818.47;5045997;28;45644;-60
2022/10/03 05:54:00;;;;;;;;;5.00;5.00;;;;;15.52;85.65;99821.91;5048613;28;46362;-59
2022/10/03 05:56:26;;;;;;;;;4.75;4.00;;;;;15.53;85.56;99826.31;5056857;28;45385;-60
2022/10/03 05:59:36;;;;;;;;;6.25;4.50;;;;;15.55;85.69;99821.81;5047426;28;45459;-60
2022/10/03 06:02:20;;;;;;;;;4.00;4.00;;;;;15.54;85.67;99820.03;5044530;28;45541;-61
2022/10/03 06:05:11;;;;;;;;;14.75;13.00;;;;;15.54;85.43;99821.84;5052479;28;46568;-60
2022/10/03 06:07:58;;;;;;;;;6.20;5.40;;;;;15.56;85.51;99820.88;5047322;28;45374;-60
2022/10/03 06:10:46;;;;;;;;;4.75;4.75;;;;;15.58;85.38;99832.28;5062235;28;45688;-61
2022/10/03 06:13:18;;;;;;;;;3.75;3.75;;;;;15.62;85.51;99832.97;5053746;28;45552;-61
2022/10/03 06:15:53;;;;;;;;;4.25;4.25;;;;;15.64;85.55;99839.06;5052183;28;47268;-59
2022/10/03 06:18:37;;;;;;;;;2.60;2.60;;;;;15.67;85.19;99837.13;5057221;27;45450;-60
2022/10/03 06:21:02;;;;;;;;;2.75;2.00;;;;;15.69;85.22;99839.72;5049590;28;45440;-60
2022/10/03 06:23:46;;;;;;;;;4.00;4.00;;;;;15.73;84.75;99843.97;5050237;28;45498;-60
2022/10/03 06:26:30;;;;;;;;;4.50;4.00;;;;;15.76;84.92;99854.41;5053593;28;45552;-61
2022/10/03 06:29:11;;;;;;;;;5.00;3.80;;;;;15.78;84.95;99851.69;5052359;28;45474;-61
2022/10/03 06:32:04;;;;;;;;;3.00;3.00;;;;;15.83;84.43;99857.66;5066144;28;45567;-60
2022/10/03 06:35:07;;;;;;;;;4.50;3.75;;;;;15.89;84.42;99860.00;5050076;28;45494;-60
2022/10/03 06:38:10;;;;;;;;;4.00;2.75;;;;;15.95;83.96;99873.84;5052722;28;45376;-60
2022/10/03 06:41:05;;;;;;;;;4.00;4.00;;;;;16.01;84.20;99873.53;5049731;28;45403;-61
2022/10/03 06:43:37;;;;;;;;;4.75;3.00;;;;;16.07;83.60;99866.19;5052486;28;45522;-60
2022/10/03 06:46:33;;;;;;;;;3.00;3.00;;;;;16.14;83.32;99875.56;5051393;28;45439;-60
2022/10/03 06:49:35;;;;;;;;;4.40;2.00;;;;;16.19;82.89;99877.06;5045122;28;46081;-60
2022/10/03 06:52:18;;;;;;;;;22.50;19.50;;;;;16.24;82.51;99876.84;5053076;28;45475;-61
2022/10/03 06:55:16;;;;;;;;;2.00;2.00;;;;;16.32;82.16;99879.97;5050296;28;45356;-60
2022/10/03 06:58:08;;;;;;;;;2.75;2.75;;;;;16.38;81.75;99885.84;5050756;28;45527;-61
2022/10/03 07:00:59;;;;;;;;;2.25;2.25;;;;;16.44;81.75;99884.63;5057628;28;45600;-60
2022/10/03 07:03:58;;;;;;;;;3.00;3.00;;;;;16.49;80.96;99882.63;5048498;28;45442;-60
2022/10/03 07:07:04;;;;;;;;;4.00;3.00;;;;;16.55;81.01;99884.97;5054769;28;45495;-60
2022/10/03 07:09:48;;;;;;;;;3.00;3.00;;;;;16.65;80.87;99894.22;5046950;28;45514;-60
2022/10/03 07:12:48;;;;;;;;;2.40;2.40;;;;;16.70;80.21;99892.19;5051694;28;46682;-63
2022/10/03 07:15:32;;;;;;;;;5.00;3.40;;;;;16.77;80.27;99898.00;5062993;28;45439;-60
2022/10/03 07:18:16;;;;;;;;;4.20;3.20;;;;;16.82;79.56;99901.31;5048185;28;45543;-60
2022/10/03 07:21:02;;;;;;;;;2.50;2.50;;;;;16.87;79.40;99906.41;5051032;28;45483;-60
2022/10/03 07:24:02;;;;;;;;;4.60;3.80;;;;;16.91;79.41;99906.16;5053521;28;46301;-60
2022/10/03 07:27:01;;;;;;;;;2.00;2.00;;;;;16.97;79.07;99913.81;5067617;28;45449;-60
2022/10/03 07:30:00;;;;;;;;;3.00;2.20;;;;;17.03;78.93;99910.81;5059968;28;45445;-60
2022/10/03 07:33:02;;;;;;;;;5.00;3.50;;;;;17.13;78.61;99911.16;5052256;28;45419;-61
2022/10/03 07:39:08;;;;;;;;;3.40;3.00;;;;;17.30;77.60;99911.13;5039351;28;45550;-60
2022/10/03 07:42:05;;;;;;;;;3.20;3.20;;;;;17.39;77.80;99921.28;5049146;27;45448;-61
2022/10/03 07:44:45;;;;;;;;;5.50;4.00;;;;;17.48;76.94;99919.91;5061560;28;45570;-60
2022/10/03 07:47:50;;;;;;;;;2.00;2.00;;;;;17.53;76.28;99919.66;5052893;28;45426;-61
2022/10/03 07:50:58;;;;;;;;;5.60;3.60;;;;;17.60;76.01;99919.19;5052319;28;45388;-61
2022/10/03 07:53:54;;;;;;;;;4.00;4.00;;;;;17.68;75.87;99924.16;5041510;28;45498;-61
2022/10/03 07:56:52;;;;;;;;;3.20;3.20;;;;;17.80;75.98;99920.78;5043873;28;45498;-61
2022/10/03 07:59:42;;;;;;;;;3.40;3.40;;;;;17.91;75.75;99925.53;5044615;28;46579;-60
2022/10/03 08:02:35;;;;;;;;;4.00;4.00;;;;;18.02;75.67;99923.94;5052872;28;45475;-61
2022/10/03 08:05:13;;;;;;;;;7.00;5.50;;;;;18.10;74.92;99929.69;5051516;28;45448;-60
2022/10/03 08:08:02;;;;;;;;;5.50;4.75;;;;;18.09;75.10;99929.81;5051879;28;45522;-61
2022/10/03 08:11:03;;;;;;;;;3.75;3.75;;;;;18.07;75.11;99929.03;5045005;28;46176;-67
2022/10/03 08:13:50;;;;;;;;;6.00;6.00;;;;;18.07;75.54;99927.22;5044660;28;45516;-69
2022/10/03 08:16:34;;;;;;;;;5.00;4.50;;;;;18.09;75.77;99924.47;5036340;28;45563;-70
2022/10/03 08:19:21;;;;;;;;;5.75;5.75;;;;;18.11;76.16;99926.06;5055439;28;45827;-70
2022/10/03 08:21:55;;;;;;;;;7.60;6.00;;;;;18.21;75.43;99923.75;5045022;28;45854;-68
2022/10/03 08:24:49;;;;;;;;;3.40;3.40;;;;;18.28;74.08;99926.91;5045489;28;45409;-68
2022/10/03 08:27:35;;;;;;;;;4.80;4.80;;;;;18.28;74.45;99924.22;5046589;28;45420;-68
2022/10/03 08:30:06;;;;;;;;;3.00;3.00;;;;;18.29;73.84;99920.59;5051335;28;45410;-68
2022/10/03 08:32:52;;;;;;;;;2.80;2.40;;;;;18.37;73.96;99921.88;5051859;28;45672;-68
2022/10/03 08:36:00;;;;;;;;;6.40;5.00;;;;;18.51;73.70;99915.72;5053633;28;45221;-68
2022/10/03 08:38:30;;;;;;;;;5.00;5.00;;;;;18.71;73.40;99910.06;5037920;28;45563;-69
2022/10/03 08:41:15;;;;;;;;;4.25;4.25;;;;;18.91;72.34;99919.53;5069876;28;45666;-68
2022/10/03 08:44:01;;;;;;;;;3.60;3.60;;;;;18.97;72.36;99905.78;5044503;28;45325;-68
2022/10/03 08:46:50;;;;;;;;;4.80;3.20;;;;;19.05;71.51;99905.31;5047572;28;45334;-68
2022/10/03 08:49:34;;;;;;;;;4.00;4.00;;;;;19.14;72.11;99905.59;5053185;28;45487;-68
2022/10/03 08:52:28;;;;;;;;;3.00;3.00;;;;;19.15;71.24;99906.47;5048245;28;45509;-68
2022/10/03 08:55:23;;;;;;;;;3.00;3.00;;;;;19.13;70.49;99906.53;5009282;28;46760;-68
2022/10/03 08:57:48;;;;;;;;;4.60;3.00;;;;;19.06;70.24;99907.03;5039470;28;45521;-68
2022/10/03 09:00:39;;;;;;;;;4.00;3.25;;;;;18.84;69.59;99902.16;5049153;28;45360;-68
2022/10/03 09:03:30;;;;;;;;;3.60;3.00;;;;;18.64;71.28;99895.34;5049872;28;45581;-67
2022/10/03 09:06:18;;;;;;;;;4.00;4.00;;;;;18.53;68.98;99910.28;5046508;28;45773;-68
2022/10/03 09:09:17;;;;;;;;;2.80;2.80;;;;;18.40;71.25;99912.84;5052297;28;45390;-68
2022/10/03 09:12:22;;;;;;;;;3.60;3.20;;;;;18.35;70.47;99909.56;5052179;28;45459;-68
2022/10/03 09:14:58;;;;;;;;;3.00;3.00;;;;;18.35;69.52;99904.25;5063524;28;45433;-68
2022/10/03 09:17:48;;;;;;;;;4.60;4.60;;;;;18.32;70.39;99899.94;5051311;28;46167;-68
2022/10/03 09:20:48;;;;;;;;;4.60;3.60;;;;;18.29;69.53;99909.94;5033502;28;45419;-67
2022/10/03 09:23:38;;;;;;;;;3.00;3.00;;;;;18.25;70.39;99903.06;5052328;28;45419;-63
2022/10/03 09:26:18;;;;;;;;;6.50;4.00;;;;;18.27;69.99;99904.69;5048081;28;45593;-69
2022/10/03 09:29:08;;;;;;;;;4.60;4.00;;;;;18.28;69.61;99901.06;5053815;28;46767;-69
2022/10/03 09:32:02;;;;;;;;;0.00;0.00;;;;;18.27;70.83;99901.16;5054112;28;45382;-70
2022/10/03 09:35:05;;;;;;;;;4.20;4.20;;;;;18.26;70.48;99907.47;5053629;27;45439;-70
2022/10/03 09:38:04;;;;;;;;;6.00;4.00;;;;;18.26;70.34;99897.66;5053742;28;45439;-69
2022/10/03 09:40:48;;;;;;;;;4.00;4.00;;;;;18.22;70.50;99892.56;5068497;28;46316;-70
2022/10/03 09:43:32;;;;;;;;;3.00;3.00;;;;;18.24;69.99;99899.53;5068700;27;45402;-70
2022/10/03 09:46:09;;;;;;;;;3.60;3.60;;;;;18.30;71.17;99890.28;5053082;28;45491;-69
2022/10/03 09:48:49;;;;;;;;;4.00;4.00;;;;;18.41;70.28;99898.53;5051482;28;45305;-70
2022/10/03 09:51:27;;;;;;;;;5.40;5.00;;;;;18.48;70.10;99897.22;5053110;28;45411;-69
2022/10/03 09:54:17;;;;;;;;;3.60;3.20;;;;;18.53;70.08;99880.91;5053264;28;45382;-70
2022/10/03 09:56:52;;;;;;;;;3.60;3.20;;;;;18.65;70.12;99880.19;5052091;28;45370;-71
2022/10/03 09:59:35;;;;;;;;;3.50;3.50;;;;;18.75;70.13;99879.56;5068530;27;45526;-69
2022/10/03 10:02:40;;;;;;;;;4.20;3.40;;;;;18.89;70.00;99883.19;5052606;28;46604;-69
2022/10/03 10:05:29;;;;;;;;;3.20;3.00;;;;;19.02;69.00;99887.66;5052883;28;45519;-69
2022/10/03 10:08:14;;;;;;;;;2.00;2.00;;;;;19.14;69.41;99886.88;5053725;28;45349;-70
2022/10/03 10:10:50;;;;;;;;;3.00;3.00;;;;;19.18;67.88;99880.41;5053443;28;45455;-70
2022/10/03 10:14:06;;;;;;;;;2.40;1.60;;;;;19.18;68.56;99874.19;5068600;27;46735;-70
2022/10/03 10:16:49;;;;;;;;;4.40;3.20;;;;;19.22;67.75;99874.84;5019862;28;45462;-69
2022/10/03 10:19:41;;;;;;;;;5.60;3.60;;;;;19.21;67.68;99871.31;5009646;28;45620;-70
2022/10/03 10:22:28;;;;;;;;;3.00;3.00;;;;;19.21;66.83;99870.47;5032703;28;45412;-69
2022/10/03 10:25:12;;;;;;;;;5.00;3.00;;;;;19.26;67.79;99863.88;5052434;28;46321;-70
2022/10/03 10:27:55;;;;;;;;;5.00;3.00;;;;;19.40;67.89;99868.34;5052889;28;45472;-70
2022/10/03 10:30:58;;;;;;;;;3.40;3.00;;;;;19.54;67.65;99860.31;5052964;28;45284;-70
2022/10/03 10:34:01;;;;;;;;;4.50;3.00;;;;;19.67;67.11;99860.34;5053858;28;46256;-70
2022/10/03 10:36:51;;;;;;;;;3.00;3.00;;;;;19.75;67.10;99856.22;5067690;28;45490;-69
2022/10/03 10:39:57;;;;;;;;;3.00;3.00;;;;;19.84;66.55;99852.94;5055046;28;45407;-70
2022/10/03 10:42:41;;;;;;;;;2.00;2.00;;;;;19.97;66.31;99846.75;5056812;28;45375;-69
2022/10/03 10:45:31;;;;;;;;;2.75;2.75;;;;;20.04;65.35;99840.91;5056022;28;45509;-69
2022/10/03 10:48:32;;;;;;;;;2.00;2.00;;;;;20.08;64.86;99829.03;5055390;28;46626;-70
2022/10/03 10:51:31;;;;;;;;;3.00;3.00;;;;;20.17;64.79;99839.09;5020394;28;45432;-69
2022/10/03 10:54:21;;;;;;;;;4.80;4.00;;;;;20.29;64.62;99831.19;5055938;28;45407;-69
2022/10/03 10:57:21;;;;;;;;;3.25;3.25;;;;;20.38;63.66;99830.59;5055591;28;45427;-69
2022/10/03 11:00:22;;;;;;;;;3.80;2.60;;;;;20.46;63.52;99818.38;5055532;28;46539;-69
2022/10/03 11:02:50;;;;;;;;;3.00;3.00;;;;;20.58;63.08;99821.19;5049608;28;45336;-70
2022/10/03 11:05:50;;;;;;;;;3.20;3.20;;;;;20.63;62.17;99819.00;5070672;28;45456;-70
2022/10/03 11:08:48;;;;;;;;;4.00;3.00;;;;;20.67;62.17;99815.16;5055399;28;45374;-70
2022/10/03 11:11:35;;;;;;;;;2.00;2.00;;;;;20.77;62.15;99811.75;5070783;28;45478;-70
2022/10/03 11:14:29;;;;;;;;;3.60;3.00;;;;;20.88;61.74;99813.66;5055520;28;45451;-70
2022/10/03 11:17:22;;;;;;;;;2.60;2.40;;;;;20.98;61.89;99817.38;5042247;28;45514;-70
2022/10/03 11:20:09;;;;;;;;;2.00;2.00;;;;;21.08;61.01;99818.44;5054145;28;45454;-71
2022/10/03 11:23:11;;;;;;;;;3.80;3.80;;;;;21.04;58.96;99813.41;5055044;28;45665;-70
2022/10/03 11:25:49;;;;;;;;;3.00;3.00;;;;;20.90;60.40;99804.53;5062185;28;45360;-70
2022/10/03 11:28:33;;;;;;;;;4.80;3.80;;;;;20.96;60.04;99813.94;5055804;28;45613;-70
2022/10/03 11:31:40;;;;;;;;;4.40;4.00;;;;;21.04;60.58;99808.88;5055272;28;45463;-70
2022/10/03 11:34:56;;;;;;;;;3.60;3.20;;;;;21.15;60.69;99802.75;5036333;28;46915;-70
2022/10/03 11:37:53;;;;;;;;;3.20;3.20;;;;;21.37;60.73;99804.75;5055473;28;45497;-70
2022/10/03 11:40:27;;;;;;;;;4.40;3.80;;;;;21.51;59.07;99800.06;5032078;28;45550;-70
2022/10/03 11:43:14;;;;;;;;;6.20;3.60;;;;;21.52;59.60;99800.94;5054291;28;45584;-70
2022/10/03 11:45:50;;;;;;;;;4.40;4.40;;;;;21.59;57.74;99800.38;5052712;28;53421;-70
2022/10/03 11:48:47;;;;;;;;;5.40;5.40;;;;;21.54;58.25;99799.84;5055067;28;45439;-70
2022/10/03 11:51:27;;;;;;;;;3.80;3.80;;;;;21.53;59.62;99792.78;5085714;27;45344;-69
2022/10/03 11:54:04;;;;;;;;;2.60;2.60;;;;;21.55;58.65;99789.97;5054738;28;45417;-68
2022/10/03 11:56:39;;;;;;;;;3.00;3.00;;;;;21.58;58.24;99789.75;5054785;28;45902;-68
2022/10/03 11:59:27;;;;;;;;;3.40;3.00;;;;;21.57;58.68;99786.22;5054721;28;45544;-69
2022/10/03 12:02:19;;;;;;;;;3.00;2.20;;;;;21.61;58.12;99792.22;5055144;28;45516;-68
2022/10/03 12:04:58;;;;;;;;;2.80;2.80;;;;;21.56;58.04;99791.69;5054572;28;45394;-68
2022/10/03 12:10:43;;;;;;;;;4.60;4.20;;;;;21.53;58.82;99797.28;5053448;28;45396;-69
2022/10/03 12:13:17;;;;;;;;;4.80;4.20;;;;;21.54;59.04;99789.13;5053647;28;45513;-69
2022/10/03 12:15:51;;;;;;;;;6.00;4.20;;;;;21.67;59.34;99796.25;5054885;28;45451;-68
2022/10/03 12:18:22;;;;;;;;;5.00;3.00;;;;;21.76;58.67;99785.69;5060419;28;46386;-69
2022/10/03 12:20:51;;;;;;;;;6.00;5.00;;;;;21.89;59.41;99789.16;5069661;28;45855;-69
2022/10/03 12:23:27;;;;;;;;;5.40;5.00;;;;;21.99;58.70;99786.59;5054915;28;45384;-69
2022/10/03 12:25:55;;;;;;;;;4.00;3.80;;;;;22.06;57.89;99782.53;5054692;28;45478;-69
2022/10/03 12:28:30;;;;;;;;;6.60;4.40;;;;;22.16;58.08;99788.03;5054778;28;45490;-69
2022/10/03 12:31:03;;;;;;;;;4.20;4.00;;;;;22.24;58.10;99775.72;5053979;28;45417;-68
2022/10/03 12:33:50;;;;;;;;;4.20;4.20;;;;;22.37;57.55;99774.75;5061100;28;45416;-68
2022/10/03 12:36:30;;;;;;;;;4.40;3.60;;;;;22.46;57.56;99776.72;5054855;28;45512;-68
2022/10/03 12:39:33;;;;;;;;;2.60;2.20;;;;;22.64;57.45;99775.25;5069628;28;47392;-68
2022/10/03 12:42:17;;;;;;;;;4.00;3.80;;;;;22.79;56.74;99760.63;5054741;28;45360;-69
2022/10/03 12:44:52;;;;;;;;;3.00;3.00;;;;;22.80;55.56;99762.34;5054374;28;45381;-68
2022/10/03 12:47:28;;;;;;;;;3.60;3.60;;;;;22.72;55.50;99758.53;5054161;28;45483;-69
2022/10/03 12:50:34;;;;;;;;;3.80;3.80;;;;;22.64;55.77;99760.00;5053756;28;45605;-69
2022/10/03 12:53:22;;;;;;;;;3.20;1.40;;;;;22.55;55.81;99759.88;5053742;28;45189;-69
2022/10/03 12:56:11;;;;;;;;;2.40;2.20;;;;;22.42;54.72;99751.09;5048463;28;45444;-69
2022/10/03 12:58:49;;;;;;;;;4.00;4.00;;;;;22.30;55.70;99755.56;5053891;28;45444;-69
2022/10/03 13:01:48;;;;;;;;;3.60;3.60;;;;;22.21;56.49;99753.63;5053698;28;46765;-69
2022/10/03 13:04:29;;;;;;;;;4.00;4.00;;;;;22.14;57.05;99757.75;5043553;28;45384;-69
2022/10/03 13:07:19;;;;;;;;;2.60;2.60;;;;;22.04;56.74;99754.06;5053649;28;45491;-68
2022/10/03 13:10:06;;;;;;;;;4.00;3.00;;;;;22.00;56.21;99749.91;5053358;28;45404;-69
2022/10/03 13:13:00;;;;;;;;;3.40;3.20;;;;;21.95;56.20;99740.34;5053868;28;46386;-69